Time;durP1;ratioP1;P1;durP2;ratioP2;P2;SDS_P1;SDS_P2;PMS_P1;PMS_P2;Temp;Humidity;BMP_temperature;BMP_pressure;BME280_temperature;BME280_humidity;BME280_pressure;Samples;Min_cycle;Max_cycle;Signal;HPM_P1;HPM_P2
2023/06/29 00:00:40;;;;;;;43.75;31.40;;;18.90;93.10;;;;;;4957912;28;20105;-78
2023/06/29 00:03:06;;;;;;;43.60;29.40;;;18.90;93.00;;;;;;4958018;28;20100;-79
2023/06/29 00:05:32;;;;;;;46.40;33.00;;;18.90;93.20;;;;;;4941655;28;20438;-78
2023/06/29 00:07:59;;;;;;;43.40;31.05;;;18.90;93.30;;;;;;4972634;28;20487;-78
2023/06/29 00:10:25;;;;;;;47.72;30.92;;;18.90;93.50;;;;;;4957606;28;20046;-78
2023/06/29 00:12:51;;;;;;;50.00;31.55;;;18.90;93.40;;;;;;4973852;28;20045;-78
2023/06/29 00:15:17;;;;;;;36.38;26.98;;;18.90;93.30;;;;;;4957295;28;20053;-78
2023/06/29 00:17:47;;;;;;;37.83;27.35;;;18.90;93.30;;;;;;4973430;28;20404;-78
2023/06/29 00:20:14;;;;;;;39.47;30.60;;;18.90;93.20;;;;;;4963903;28;20041;-78
2023/06/29 00:22:47;;;;;;;49.38;34.15;;;18.90;93.10;;;;;;4992898;28;20499;-79
2023/06/29 00:25:13;;;;;;;48.38;32.70;;;18.90;93.10;;;;;;4973753;28;20046;-79
2023/06/29 00:27:39;;;;;;;49.25;32.83;;;18.90;93.10;;;;;;4973834;28;20078;-79
2023/06/29 00:30:06;;;;;;;40.50;31.17;;;18.90;93.10;;;;;;4974024;28;20043;-79
2023/06/29 00:32:32;;;;;;;37.50;25.70;;;18.90;93.10;;;;;;4973564;28;20094;-79
2023/06/29 00:34:58;;;;;;;35.20;25.23;;;18.90;93.20;;;;;;4957007;28;20480;-79
2023/06/29 00:37:24;;;;;;;41.67;26.90;;;18.90;93.10;;;;;;4957872;28;20499;-79
2023/06/29 00:39:50;;;;;;;43.50;30.05;;;18.90;93.10;;;;;;4972436;28;20049;-79
2023/06/29 00:42:15;;;;;;;40.88;28.63;;;18.90;93.30;;;;;;4957423;28;20080;-78
2023/06/29 00:44:41;;;;;;;33.33;24.52;;;18.90;93.10;;;;;;4973773;28;20042;-78
2023/06/29 00:47:08;;;;;;;39.80;27.33;;;18.90;93.00;;;;;;4941312;28;20503;-79
2023/06/29 00:49:33;;;;;;;41.97;27.83;;;18.90;93.00;;;;;;4924180;28;20038;-79
2023/06/29 00:51:59;;;;;;;38.47;27.50;;;18.90;93.10;;;;;;4957418;28;20516;-79
2023/06/29 00:54:26;;;;;;;26.52;21.50;;;18.90;93.40;;;;;;4973487;28;20352;-78
2023/06/29 00:56:52;;;;;;;38.67;28.38;;;18.90;93.20;;;;;;4973486;28;20035;-79
2023/06/29 00:59:18;;;;;;;39.60;28.55;;;18.90;93.20;;;;;;4957548;28;20401;-79
2023/06/29 01:01:45;;;;;;;39.05;30.25;;;18.90;93.20;;;;;;4957273;28;20039;-79
2023/06/29 01:04:22;;;;;;;45.58;31.55;;;18.90;93.50;;;;;;4941446;28;20054;-79
2023/06/29 01:07:03;;;;;;;42.92;30.88;;;18.90;93.70;;;;;;4973376;28;20054;-79
2023/06/29 01:09:30;;;;;;;41.47;30.35;;;18.90;93.70;;;;;;4972161;28;20042;-79
2023/06/29 01:11:58;;;;;;;42.40;31.42;;;18.90;93.40;;;;;;4940893;28;20074;-79
2023/06/29 01:14:26;;;;;;;39.15;29.90;;;18.80;93.40;;;;;;4941476;28;20039;-78
2023/06/29 01:16:54;;;;;;;55.22;35.58;;;18.80;93.30;;;;;;4973663;28;20110;-79
2023/06/29 01:19:24;;;;;;;50.92;34.67;;;18.80;93.40;;;;;;4957341;28;20090;-79
2023/06/29 01:22:03;;;;;;;41.60;29.05;;;18.90;93.50;;;;;;4973494;28;20047;-79
2023/06/29 01:24:38;;;;;;;50.25;34.45;;;18.90;93.60;;;;;;4972545;28;20554;-79
2023/06/29 01:27:06;;;;;;;60.03;36.65;;;18.90;93.40;;;;;;4941487;28;20039;-78
2023/06/29 01:29:32;;;;;;;57.65;36.47;;;18.80;93.50;;;;;;4973468;28;20451;-79
2023/06/29 01:32:03;;;;;;;56.33;36.17;;;18.80;93.60;;;;;;4957187;28;20043;-79
2023/06/29 01:34:30;;;;;;;54.03;38.03;;;18.80;93.80;;;;;;4941958;28;20043;-79
2023/06/29 01:37:02;;;;;;;57.88;36.65;;;18.80;93.90;;;;;;4973036;28;20049;-78
2023/06/29 01:39:36;;;;;;;55.10;36.15;;;18.80;94.00;;;;;;4957134;28;20102;-78
2023/06/29 01:42:03;;;;;;;;;;;18.80;94.00;;;;;;4973123;28;20035;-79
2023/06/29 01:44:28;;;;;;;53.45;36.15;;;18.80;94.50;;;;;;4958019;28;19924;-78
2023/06/29 01:46:55;;;;;;;55.05;38.67;;;18.80;94.10;;;;;;4960562;28;20130;-79
2023/06/29 01:49:21;;;;;;;53.60;37.75;;;18.80;94.30;;;;;;4944654;28;20047;-79
2023/06/29 01:51:46;;;;;;;53.65;35.53;;;18.80;94.30;;;;;;4960105;28;20130;-79
2023/06/29 01:54:12;;;;;;;52.47;34.70;;;18.80;94.20;;;;;;4976346;28;20134;-78
2023/06/29 01:56:38;;;;;;;47.42;36.10;;;18.80;94.10;;;;;;4976053;28;20403;-79
2023/06/29 01:59:04;;;;;;;45.33;32.13;;;18.80;94.10;;;;;;4975628;28;20046;-79
2023/06/29 02:01:30;;;;;;;53.88;36.90;;;18.80;94.10;;;;;;4976597;28;20035;-79
2023/06/29 02:03:56;;;;;;;56.28;35.85;;;18.90;94.20;;;;;;4976132;28;20452;-79
2023/06/29 02:06:21;;;;;;;51.55;36.92;;;18.90;94.50;;;;;;4976067;28;20122;-78
2023/06/29 02:08:48;;;;;;;52.47;35.47;;;18.80;94.10;;;;;;4928496;28;20046;-79
2023/06/29 02:11:13;;;;;;;49.72;32.35;;;18.90;94.40;;;;;;4944351;28;20165;-79
2023/06/29 02:13:39;;;;;;;43.45;31.67;;;18.80;94.30;;;;;;4959389;28;20129;-78
2023/06/29 02:16:05;;;;;;;41.53;30.17;;;18.90;94.20;;;;;;4960570;28;20488;-78
2023/06/29 02:18:31;;;;;;;48.40;33.55;;;18.90;94.40;;;;;;4944747;28;20066;-78
2023/06/29 02:20:57;;;;;;;49.97;35.72;;;18.90;94.40;;;;;;4976860;28;20480;-78
2023/06/29 02:23:23;;;;;;;51.17;34.65;;;18.90;94.40;;;;;;4944762;28;20406;-78
2023/06/29 02:25:49;;;;;;;53.03;36.47;;;18.90;94.40;;;;;;4944755;28;20138;-78
2023/06/29 02:28:14;;;;;;;55.63;36.08;;;18.90;94.50;;;;;;4943951;28;20126;-78
2023/06/29 02:30:40;;;;;;;47.15;34.22;;;18.80;94.80;;;;;;4960080;28;20047;-78
2023/06/29 02:33:06;;;;;;;47.58;34.35;;;18.90;94.80;;;;;;4943147;28;20039;-78
2023/06/29 02:35:31;;;;;;;53.53;34.03;;;18.90;94.80;;;;;;4959962;28;20489;-78
2023/06/29 02:37:57;;;;;;;46.55;32.53;;;18.90;94.90;;;;;;4959704;28;20043;-78
2023/06/29 02:40:23;;;;;;;48.40;33.72;;;18.90;94.70;;;;;;4943768;28;20038;-79
2023/06/29 02:42:48;;;;;;;38.28;27.52;;;18.90;94.80;;;;;;4943639;28;20077;-78
2023/06/29 02:45:14;;;;;;;48.15;34.42;;;18.90;94.60;;;;;;4959680;28;20042;-78
2023/06/29 02:47:40;;;;;;;46.08;31.50;;;18.90;94.60;;;;;;4959354;28;20048;-79
2023/06/29 02:50:06;;;;;;;45.22;32.53;;;18.90;94.40;;;;;;4958838;28;20039;-78
2023/06/29 02:52:32;;;;;;;40.47;30.15;;;18.90;94.30;;;;;;4960508;28;20427;-78
2023/06/29 02:54:57;;;;;;;47.47;32.03;;;18.90;94.40;;;;;;4975998;28;20131;-79
2023/06/29 02:57:23;;;;;;;43.03;30.33;;;18.90;94.30;;;;;;4959180;28;20093;-78
2023/06/29 02:59:48;;;;;;;41.67;29.35;;;18.90;94.20;;;;;;4944333;28;20480;-78
2023/06/29 03:02:14;;;;;;;39.67;30.63;;;18.90;94.20;;;;;;4976396;28;20472;-78
2023/06/29 03:04:40;;;;;;;38.15;29.70;;;18.90;94.30;;;;;;4959463;28;20506;-79
2023/06/29 03:07:06;;;;;;;44.40;30.77;;;18.90;94.20;;;;;;4926049;28;20043;-78
2023/06/29 03:09:32;;;;;;;39.53;29.25;;;18.90;94.10;;;;;;4974962;28;20434;-78
2023/06/29 03:11:57;;;;;;;43.28;29.08;;;18.90;94.10;;;;;;4958584;28;20043;-78
2023/06/29 03:14:23;;;;;;;38.45;27.50;;;18.90;94.10;;;;;;4942326;28;20113;-78
2023/06/29 03:16:49;;;;;;;34.40;25.05;;;18.90;94.00;;;;;;4942804;28;20034;-78
2023/06/29 03:19:15;;;;;;;39.10;26.48;;;18.90;93.80;;;;;;4974782;28;20074;-78
2023/06/29 03:21:41;;;;;;;34.88;25.40;;;18.90;93.80;;;;;;4975126;28;20035;-78
2023/06/29 03:24:06;;;;;;;38.63;26.83;;;18.90;93.60;;;;;;4958687;28;20043;-78
2023/06/29 03:26:32;;;;;;;34.78;23.67;;;18.90;93.60;;;;;;4976044;28;20038;-78
2023/06/29 03:28:58;;;;;;;35.08;25.60;;;18.90;93.50;;;;;;4959562;28;20090;-78
2023/06/29 03:31:23;;;;;;;37.33;24.42;;;18.90;93.50;;;;;;4959177;28;20042;-78
2023/06/29 03:33:49;;;;;;;38.42;25.70;;;18.90;93.50;;;;;;4958981;28;20039;-78
2023/06/29 03:36:15;;;;;;;32.63;24.00;;;18.90;93.50;;;;;;4974923;28;20480;-78
2023/06/29 03:38:41;;;;;;;35.03;24.45;;;18.90;93.50;;;;;;4974834;28;20042;-79
2023/06/29 03:41:06;;;;;;;35.75;24.98;;;18.90;93.40;;;;;;4958100;28;20098;-77
2023/06/29 03:43:32;;;;;;;37.13;25.38;;;18.90;93.40;;;;;;4974764;28;20517;-77
2023/06/29 03:45:59;;;;;;;33.40;22.60;;;18.90;93.30;;;;;;4974484;28;20049;-77
2023/06/29 03:48:27;;;;;;;28.63;22.30;;;18.90;93.20;;;;;;4958285;28;20043;-77
2023/06/29 03:51:00;;;;;;;35.22;24.55;;;18.90;93.10;;;;;;4958111;28;20043;-78
2023/06/29 03:53:25;;;;;;;30.58;23.02;;;18.90;92.90;;;;;;4941987;28;20046;-77
2023/06/29 03:55:51;;;;;;;34.47;23.55;;;18.90;92.90;;;;;;4941489;28;20042;-78
2023/06/29 03:58:17;;;;;;;31.13;22.88;;;18.90;92.80;;;;;;4973656;28;20130;-78
2023/06/29 04:00:43;;;;;;;36.53;22.90;;;18.90;92.80;;;;;;4941913;28;20073;-77
2023/06/29 04:03:09;;;;;;;32.90;23.02;;;18.90;92.60;;;;;;4974025;28;20046;-77
2023/06/29 04:05:34;;;;;;;33.45;24.20;;;18.90;92.60;;;;;;4973596;28;20055;-77
2023/06/29 04:08:05;;;;;;;33.38;22.05;;;18.90;92.50;;;;;;4957804;28;20042;-77
2023/06/29 04:10:32;;;;;;;28.27;21.50;;;18.90;92.50;;;;;;4958202;28;20443;-77
2023/06/29 04:12:58;;;;;;;31.98;22.67;;;18.90;92.50;;;;;;4972843;28;20039;-77
2023/06/29 04:15:24;;;;;;;32.15;23.70;;;18.90;92.40;;;;;;4973813;28;20518;-77
2023/06/29 04:17:49;;;;;;;30.63;22.25;;;18.90;92.30;;;;;;4941990;28;20039;-77
2023/06/29 04:20:15;;;;;;;36.45;24.15;;;18.90;92.40;;;;;;4957774;28;20106;-77
2023/06/29 04:22:41;;;;;;;34.38;22.40;;;19.00;92.40;;;;;;4971907;28;20118;-78
2023/06/29 04:25:07;;;;;;;30.15;23.02;;;18.90;92.30;;;;;;4973862;28;20487;-77
2023/06/29 04:27:34;;;;;;;31.13;23.83;;;18.90;92.30;;;;;;4974086;28;20043;-77
2023/06/29 04:30:00;;;;;;;33.65;22.58;;;19.00;92.40;;;;;;4973835;28;20502;-77
2023/06/29 04:32:26;;;;;;;35.05;23.65;;;18.90;92.30;;;;;;4973544;28;20495;-78
2023/06/29 04:34:51;;;;;;;34.60;24.25;;;19.00;92.40;;;;;;4941743;28;20045;-77
2023/06/29 04:37:17;;;;;;;32.28;23.73;;;19.00;92.50;;;;;;4973744;28;20039;-77
2023/06/29 04:39:43;;;;;;;30.02;22.88;;;19.00;92.40;;;;;;4956722;28;20042;-77
2023/06/29 04:42:13;;;;;;;32.42;23.88;;;19.00;92.30;;;;;;4973611;28;20519;-77
2023/06/29 04:44:44;;;;;;;37.83;24.27;;;19.00;92.20;;;;;;4973551;28;20050;-77
2023/06/29 04:47:10;;;;;;;33.67;23.33;;;19.00;92.20;;;;;;4957537;28;20043;-77
2023/06/29 04:49:37;;;;;;;34.80;24.30;;;19.00;92.00;;;;;;4941941;28;20138;-77
2023/06/29 04:52:06;;;;;;;32.17;24.50;;;18.90;92.10;;;;;;4973888;28;20141;-77
2023/06/29 04:54:32;;;;;;;35.00;23.67;;;18.90;92.10;;;;;;4973177;28;20039;-77
2023/06/29 04:56:59;;;;;;;32.13;23.27;;;18.90;92.20;;;;;;4972689;28;20529;-77
2023/06/29 04:59:25;;;;;;;32.78;23.58;;;18.90;92.10;;;;;;4942016;28;20046;-77
2023/06/29 05:01:51;;;;;;;31.60;22.33;;;18.90;92.20;;;;;;4973532;28;20049;-78
2023/06/29 05:04:17;;;;;;;35.85;24.85;;;18.90;92.30;;;;;;4941028;28;20058;-78
2023/06/29 05:06:43;;;;;;;37.67;24.20;;;18.90;92.40;;;;;;4957301;28;20051;-78
2023/06/29 05:09:08;;;;;;;34.00;24.20;;;18.90;92.30;;;;;;4957564;28;20090;-78
2023/06/29 05:11:34;;;;;;;34.35;25.75;;;18.90;92.30;;;;;;4957211;28;20042;-78
2023/06/29 05:14:00;;;;;;;33.72;23.70;;;18.90;92.50;;;;;;4972279;28;20077;-78
2023/06/29 05:16:26;;;;;;;37.25;25.17;;;18.90;92.50;;;;;;4957469;28;20046;-79
2023/06/29 05:18:52;;;;;;;34.65;24.65;;;18.90;92.50;;;;;;4942588;28;20034;-79
2023/06/29 05:21:18;;;;;;;36.33;24.70;;;18.90;92.80;;;;;;4962147;28;20035;-79
2023/06/29 05:23:43;;;;;;;34.05;24.77;;;18.90;92.80;;;;;;4977929;28;20046;-80
2023/06/29 05:26:09;;;;;;;38.25;24.88;;;18.90;92.90;;;;;;4961933;28;20039;-80
2023/06/29 05:28:35;;;;;;;40.58;25.88;;;18.90;92.70;;;;;;4977474;28;20042;-79
2023/06/29 05:31:00;;;;;;;38.50;25.90;;;18.90;93.20;;;;;;4960383;28;20051;-79
2023/06/29 05:33:27;;;;;;;38.70;25.58;;;18.90;93.00;;;;;;4961293;28;20439;-80
2023/06/29 05:35:53;;;;;;;38.60;24.00;;;18.90;93.10;;;;;;4986805;28;20388;-79
2023/06/29 05:38:18;;;;;;;32.97;25.55;;;18.90;93.20;;;;;;4995604;28;20034;-80
2023/06/29 05:40:44;;;;;;;33.65;25.45;;;19.00;93.60;;;;;;4953646;28;20498;-80
2023/06/29 05:43:10;;;;;;;39.15;28.02;;;18.90;93.60;;;;;;4968833;28;20073;-80
2023/06/29 05:45:36;;;;;;;37.22;24.83;;;19.00;93.70;;;;;;4995871;28;20061;-78
2023/06/29 05:48:02;;;;;;;35.72;25.23;;;19.00;93.80;;;;;;4977532;28;20038;-79
2023/06/29 05:50:28;;;;;;;34.13;23.92;;;19.00;93.60;;;;;;5011750;28;20510;-78
2023/06/29 05:52:54;;;;;;;35.35;23.42;;;19.00;93.90;;;;;;4971393;28;20030;-79
2023/06/29 05:55:20;;;;;;;31.05;23.20;;;19.00;93.60;;;;;;5014033;28;20076;-80
2023/06/29 05:57:45;;;;;;;31.80;24.20;;;19.00;93.60;;;;;;4989778;28;20049;-80
2023/06/29 06:00:12;;;;;;;32.97;22.73;;;19.00;93.40;;;;;;4966575;28;20468;-80
2023/06/29 06:02:39;;;;;;;32.30;23.70;;;19.00;93.60;;;;;;5006804;28;20039;-80
2023/06/29 06:05:07;;;;;;;34.42;24.42;;;19.00;93.90;;;;;;4971113;28;20046;-80
2023/06/29 06:07:33;;;;;;;35.70;23.85;;;19.00;94.10;;;;;;4965617;28;20046;-81
2023/06/29 06:09:59;;;;;;;31.95;23.35;;;19.10;93.90;;;;;;4968521;28;20983;-80
2023/06/29 06:12:24;;;;;;;32.72;23.52;;;19.00;93.70;;;;;;4972658;28;20122;-79
2023/06/29 06:14:50;;;;;;;34.65;24.25;;;19.10;93.60;;;;;;4970317;28;20038;-80
2023/06/29 06:17:16;;;;;;;34.42;24.08;;;19.10;93.80;;;;;;5012764;28;20038;-81
2023/06/29 06:19:42;;;;;;;34.58;24.80;;;19.10;94.00;;;;;;4958574;28;20036;-79
2023/06/29 06:22:08;;;;;;;32.45;24.70;;;19.10;94.10;;;;;;5013857;28;20057;-80
2023/06/29 06:24:34;;;;;;;33.05;23.20;;;19.10;94.00;;;;;;4976509;28;20042;-80
2023/06/29 06:27:00;;;;;;;33.42;23.70;;;19.20;94.00;;;;;;4958330;28;20057;-82
2023/06/29 06:29:26;;;;;;;33.35;23.23;;;19.20;94.00;;;;;;4949495;28;20081;-82
2023/06/29 06:31:51;;;;;;;36.05;24.67;;;19.20;93.90;;;;;;4963307;28;20508;-79
2023/06/29 06:34:17;;;;;;;34.20;24.60;;;19.30;93.70;;;;;;4934388;28;20073;-80
2023/06/29 06:36:43;;;;;;;33.53;22.85;;;19.40;93.90;;;;;;4964815;28;20066;-79
2023/06/29 06:39:09;;;;;;;34.97;25.23;;;19.40;93.60;;;;;;4934122;28;20058;-82
2023/06/29 06:41:35;;;;;;;33.15;24.65;;;19.30;93.40;;;;;;4934992;28;20181;-81
2023/06/29 06:44:01;;;;;;;35.00;23.90;;;19.40;93.40;;;;;;4928538;29;20035;-80
2023/06/29 06:46:26;;;;;;;33.63;24.38;;;19.40;93.30;;;;;;4940342;29;20066;-80
2023/06/29 06:48:52;;;;;;;37.00;23.25;;;19.40;93.40;;;;;;4939768;29;20050;-79
2023/06/29 06:51:18;;;;;;;35.08;26.25;;;19.40;93.40;;;;;;4924287;29;20039;-79
2023/06/29 06:53:43;;;;;;;36.97;26.67;;;19.40;93.40;;;;;;4940199;28;20050;-80
2023/06/29 06:56:09;;;;;;;32.15;23.58;;;19.50;93.40;;;;;;4943238;28;20038;-79
2023/06/29 06:58:35;;;;;;;37.05;25.98;;;19.50;93.40;;;;;;4975770;28;20050;-80
2023/06/29 07:01:01;;;;;;;36.08;25.63;;;19.50;93.40;;;;;;4975207;28;20046;-79
2023/06/29 07:03:26;;;;;;;32.78;24.85;;;19.50;93.30;;;;;;4959249;28;20039;-78
2023/06/29 07:05:55;;;;;;;34.72;25.50;;;19.50;93.20;;;;;;4943140;28;20061;-79
2023/06/29 07:08:21;;;;;;;37.90;26.77;;;19.60;93.30;;;;;;4975407;28;20391;-80
2023/06/29 07:10:47;;;;;;;35.75;26.80;;;19.60;93.20;;;;;;4968542;28;20030;-79
2023/06/29 07:13:13;;;;;;;36.65;26.00;;;19.60;93.30;;;;;;4945770;28;20545;-79
2023/06/29 07:15:41;;;;;;;37.75;28.00;;;19.60;93.30;;;;;;4963904;28;20034;-78
2023/06/29 07:18:07;;;;;;;38.88;27.42;;;19.60;93.20;;;;;;4943121;28;20051;-80
2023/06/29 07:20:32;;;;;;;36.15;27.33;;;19.70;93.40;;;;;;4991825;28;20043;-81
2023/06/29 07:22:58;;;;;;;39.58;26.85;;;19.70;93.20;;;;;;4975795;28;20403;-82
2023/06/29 07:25:24;;;;;;;37.97;28.02;;;19.80;93.00;;;;;;4990860;28;20043;-80
2023/06/29 07:27:49;;;;;;;39.40;27.45;;;19.80;92.80;;;;;;4973263;28;20042;-79
2023/06/29 07:30:16;;;;;;;41.72;27.95;;;19.80;92.70;;;;;;4927014;28;20039;-80
2023/06/29 07:32:42;;;;;;;37.05;27.27;;;19.90;92.40;;;;;;4941677;28;20078;-80
2023/06/29 07:35:08;;;;;;;39.28;28.33;;;19.90;92.20;;;;;;4958608;28;20046;-80
2023/06/29 07:37:34;;;;;;;39.65;27.13;;;20.00;92.20;;;;;;4974833;28;20046;-79
2023/06/29 07:40:00;;;;;;;39.95;27.77;;;20.00;91.90;;;;;;4959392;28;20050;-81
2023/06/29 07:42:26;;;;;;;40.72;27.83;;;20.00;91.80;;;;;;4942336;28;20538;-78
2023/06/29 07:44:52;;;;;;;42.60;29.73;;;20.00;91.50;;;;;;4942472;28;20479;-78
2023/06/29 07:47:17;;;;;;;43.55;28.80;;;20.00;91.30;;;;;;4958569;28;20042;-78
2023/06/29 07:49:43;;;;;;;41.50;29.27;;;20.00;90.80;;;;;;4974129;28;20502;-78
2023/06/29 07:52:09;;;;;;;40.40;28.38;;;20.00;90.60;;;;;;4974392;28;20074;-78
2023/06/29 07:54:34;;;;;;;40.05;28.17;;;20.00;90.90;;;;;;4974049;28;20380;-78
2023/06/29 07:57:00;;;;;;;40.72;28.27;;;20.00;91.00;;;;;;4974028;28;20069;-78
2023/06/29 07:59:26;;;;;;;37.80;26.90;;;20.00;91.00;;;;;;4957787;28;20089;-78
2023/06/29 08:01:53;;;;;;;41.97;30.05;;;20.00;90.90;;;;;;4941962;28;20126;-77
2023/06/29 08:04:18;;;;;;;42.38;28.70;;;20.00;90.50;;;;;;4957454;28;20046;-78
2023/06/29 08:06:44;;;;;;;44.05;30.60;;;20.00;90.80;;;;;;4957886;28;20050;-77
2023/06/29 08:09:11;;;;;;;41.05;27.55;;;20.10;90.80;;;;;;4982565;28;20051;-78
2023/06/29 08:11:37;;;;;;;41.17;30.17;;;20.00;90.60;;;;;;4966604;28;20117;-78
2023/06/29 08:14:04;;;;;;;40.75;31.13;;;20.00;90.80;;;;;;4992341;28;20101;-79
2023/06/29 08:16:29;;;;;;;42.35;30.40;;;20.00;90.80;;;;;;5006023;28;20502;-79
2023/06/29 08:18:56;;;;;;;39.95;30.10;;;20.00;90.80;;;;;;4967336;28;20043;-78
2023/06/29 08:21:22;;;;;;;41.35;29.52;;;20.00;90.70;;;;;;4968998;28;20450;-79
2023/06/29 08:23:49;;;;;;;39.25;28.45;;;20.00;90.60;;;;;;4977743;28;20081;-79
2023/06/29 08:26:15;;;;;;;41.00;29.25;;;20.00;90.70;;;;;;4960137;28;20742;-79
2023/06/29 08:28:41;;;;;;;40.45;29.63;;;20.00;90.70;;;;;;4961657;28;20054;-78
2023/06/29 08:31:07;;;;;;;39.33;29.98;;;20.00;90.70;;;;;;4950575;28;20402;-78
2023/06/29 08:33:32;;;;;;;40.25;29.48;;;20.00;90.70;;;;;;4975470;28;20579;-77
2023/06/29 08:35:58;;;;;;;39.17;30.52;;;20.00;90.70;;;;;;4976377;28;20529;-77
2023/06/29 08:38:24;;;;;;;41.20;29.33;;;20.00;90.80;;;;;;4960552;28;20505;-78
2023/06/29 08:40:50;;;;;;;39.50;29.65;;;20.00;90.90;;;;;;4957303;28;20105;-78
2023/06/29 08:43:17;;;;;;;37.53;27.50;;;20.00;91.00;;;;;;4950512;28;20462;-77
2023/06/29 08:45:44;;;;;;;35.65;24.98;;;20.00;90.90;;;;;;4956460;28;20042;-78
2023/06/29 08:48:14;;;;;;;38.03;28.73;;;19.90;90.10;;;;;;4954859;28;20042;-78
2023/06/29 08:50:52;;;;;;;40.15;28.73;;;19.90;90.30;;;;;;4973351;28;20175;-77
2023/06/29 08:53:19;;;;;;;41.15;30.25;;;19.90;90.40;;;;;;4974527;28;20046;-77
2023/06/29 08:55:45;;;;;;;42.70;32.20;;;19.90;90.40;;;;;;4959311;28;20046;-77
2023/06/29 08:58:12;;;;;;;46.65;32.35;;;19.80;90.90;;;;;;4958276;28;20597;-77
2023/06/29 09:00:38;;;;;;;50.03;35.25;;;19.70;90.90;;;;;;4941095;28;20039;-78
2023/06/29 09:03:04;;;;;;;57.17;36.40;;;19.60;91.60;;;;;;4971151;28;20409;-79
2023/06/29 09:05:30;;;;;;;54.67;35.75;;;19.50;92.10;;;;;;4943125;28;20069;-78
2023/06/29 09:07:56;;;;;;;54.03;35.80;;;19.50;92.00;;;;;;4951773;28;20042;-78
2023/06/29 09:10:22;;;;;;;54.80;37.10;;;19.40;92.30;;;;;;4974920;28;20054;-78
2023/06/29 09:12:52;;;;;;;53.17;35.88;;;19.40;92.50;;;;;;4972489;28;20048;-78
2023/06/29 09:15:18;;;;;;;50.42;35.03;;;19.40;92.70;;;;;;4978216;28;20051;-78
2023/06/29 09:17:47;;;;;;;53.30;35.55;;;19.30;93.90;;;;;;4973596;28;20079;-77
2023/06/29 09:20:15;;;;;;;51.22;34.53;;;19.30;93.80;;;;;;4974495;28;20080;-77
2023/06/29 09:22:42;;;;;;;52.40;36.03;;;19.40;93.70;;;;;;4972407;28;20054;-77
2023/06/29 09:25:10;;;;;;;50.58;33.38;;;19.40;93.50;;;;;;4971230;28;20049;-77
2023/06/29 09:27:35;;;;;;;50.38;35.83;;;19.50;93.60;;;;;;4954531;28;20055;-77
2023/06/29 09:30:03;;;;;;;55.35;35.72;;;19.60;93.50;;;;;;4967989;28;20053;-77
2023/06/29 09:32:29;;;;;;;48.92;36.00;;;19.70;94.00;;;;;;4966709;28;20086;-77
2023/06/29 09:34:55;;;;;;;55.08;37.10;;;19.70;93.60;;;;;;4977773;28;20061;-78
2023/06/29 09:37:21;;;;;;;56.08;35.80;;;19.70;93.80;;;;;;4955376;28;20105;-77
2023/06/29 09:39:56;;;;;;;52.35;36.50;;;19.70;93.90;;;;;;4951457;28;20676;-77
2023/06/29 09:42:23;;;;;;;49.22;34.15;;;19.70;93.70;;;;;;4978803;28;20039;-77
2023/06/29 09:44:49;;;;;;;55.85;38.40;;;19.80;93.70;;;;;;4974379;28;20402;-77
2023/06/29 09:47:14;;;;;;;46.88;34.38;;;19.80;93.70;;;;;;4966530;28;20054;-77
2023/06/29 09:49:49;;;;;;;54.85;36.22;;;19.80;93.50;;;;;;4957668;28;20409;-77
2023/06/29 09:52:16;;;;;;;53.72;38.10;;;19.80;93.60;;;;;;4978631;28;20503;-77
2023/06/29 09:54:43;;;;;;;54.83;36.78;;;19.90;93.50;;;;;;4939196;28;20077;-78
2023/06/29 09:57:13;;;;;;;52.47;36.92;;;20.00;93.50;;;;;;4966001;28;20042;-77
2023/06/29 09:59:40;;;;;;;55.80;36.78;;;20.00;93.30;;;;;;4965643;28;20046;-77
2023/06/29 10:02:10;;;;;;;59.67;36.65;;;19.90;93.30;;;;;;4956432;28;20136;-77
2023/06/29 10:04:42;;;;;;;53.58;36.90;;;20.00;93.10;;;;;;4971683;28;20057;-78
2023/06/29 10:07:16;;;;;;;58.35;37.13;;;20.00;93.10;;;;;;4973557;28;20074;-77
2023/06/29 10:09:46;;;;;;;50.13;37.10;;;20.00;93.00;;;;;;4981579;28;20065;-77
2023/06/29 10:12:12;;;;;;;46.47;35.72;;;20.00;92.80;;;;;;4977713;28;20054;-77
2023/06/29 10:14:41;;;;;;;54.88;37.03;;;20.00;92.50;;;;;;4957898;28;20074;-77
2023/06/29 10:17:41;;;;;;;52.72;36.88;;;20.00;92.70;;;;;;4977527;28;20031;-77
2023/06/29 10:20:08;;;;;;;56.40;38.08;;;20.00;92.90;;;;;;4976852;28;20044;-77
2023/06/29 10:22:36;;;;;;;54.53;37.15;;;19.90;92.90;;;;;;4980332;28;20113;-78
2023/06/29 10:25:07;;;;;;;48.75;36.70;;;20.00;92.90;;;;;;4960308;28;20041;-77
2023/06/29 10:27:34;;;;;;;55.08;37.95;;;20.00;92.80;;;;;;4978399;28;20181;-77
2023/06/29 10:30:04;;;;;;;47.80;35.53;;;20.10;92.60;;;;;;4954772;28;20053;-78
2023/06/29 10:32:35;;;;;;;48.10;36.08;;;20.20;92.60;;;;;;4976091;28;20522;-77
2023/06/29 10:35:05;;;;;;;48.33;35.95;;;20.20;92.60;;;;;;4938719;28;20120;-78
2023/06/29 10:37:37;;;;;;;50.65;38.17;;;20.20;92.40;;;;;;4963156;28;20513;-77
2023/06/29 10:40:11;;;;;;;52.45;37.80;;;20.30;92.00;;;;;;4962902;28;20146;-78
2023/06/29 10:42:37;;;;;;;46.80;36.30;;;20.30;92.10;;;;;;4975774;28;20043;-77
2023/06/29 10:45:23;;;;;;;58.35;41.38;;;20.40;92.10;;;;;;4961591;28;20096;-79
2023/06/29 10:48:09;;;;;;;52.35;38.45;;;20.50;92.00;;;;;;4968414;28;20053;-79
2023/06/29 10:50:40;;;;;;;51.85;40.00;;;20.50;91.90;;;;;;4964349;28;20058;-81
2023/06/29 10:53:08;;;;;;;50.45;36.47;;;20.70;91.90;;;;;;4959153;28;20046;-79
2023/06/29 10:55:43;;;;;;;51.92;36.63;;;20.80;91.60;;;;;;4976481;28;20050;-80
2023/06/29 10:58:24;;;;;;;48.40;38.10;;;20.90;91.30;;;;;;4976133;28;20073;-79
2023/06/29 11:00:52;;;;;;;51.67;37.45;;;20.90;90.50;;;;;;4964755;28;20044;-80
2023/06/29 11:03:19;;;;;;;53.65;36.42;;;20.80;90.40;;;;;;4968407;28;20499;-79
2023/06/29 11:05:50;;;;;;;67.32;36.85;;;20.80;90.30;;;;;;4976552;28;20535;-79
2023/06/29 11:08:16;;;;;;;55.65;35.30;;;20.70;91.10;;;;;;4961043;28;21688;-80
2023/06/29 11:10:42;;;;;;;47.33;34.22;;;20.80;90.80;;;;;;4977096;28;20073;-80
2023/06/29 11:13:09;;;;;;;47.42;34.15;;;20.80;91.00;;;;;;4976069;28;20046;-80
2023/06/29 11:15:35;;;;;;;46.95;34.13;;;20.90;90.90;;;;;;4975737;28;20084;-79
2023/06/29 11:18:08;;;;;;;46.45;34.78;;;20.90;90.80;;;;;;4967694;28;20057;-80
2023/06/29 11:20:37;;;;;;;43.75;33.63;;;21.00;90.70;;;;;;4957770;28;20113;-80
2023/06/29 11:23:03;;;;;;;50.28;32.25;;;21.00;90.30;;;;;;4976637;28;20046;-77
2023/06/29 11:25:29;;;;;;;51.22;33.83;;;21.10;90.20;;;;;;4962404;28;20065;-77
2023/06/29 11:27:56;;;;;;;63.70;35.92;;;21.10;89.80;;;;;;4975586;28;20053;-78
2023/06/29 11:30:22;;;;;;;45.53;31.13;;;21.10;90.50;;;;;;4974988;28;20085;-78
2023/06/29 11:32:50;;;;;;;41.08;30.40;;;21.20;90.50;;;;;;4951388;28;20078;-78
2023/06/29 11:35:20;;;;;;;38.10;26.00;;;21.50;90.00;;;;;;4960651;28;20468;-78
2023/06/29 11:37:46;;;;;;;37.00;27.88;;;21.70;89.40;;;;;;4962737;28;20069;-78
2023/06/29 11:40:22;;;;;;;42.78;31.80;;;21.90;88.60;;;;;;4978398;28;20475;-78
2023/06/29 11:42:49;;;;;;;39.35;30.38;;;21.90;88.10;;;;;;4978995;28;20050;-78
2023/06/29 11:45:16;;;;;;;41.47;31.98;;;22.00;87.80;;;;;;4941182;28;20078;-77
2023/06/29 11:47:46;;;;;;;44.75;33.95;;;21.90;87.20;;;;;;4957880;28;20474;-78
2023/06/29 11:50:12;;;;;;;40.28;31.77;;;21.70;85.90;;;;;;4973984;28;20073;-78
2023/06/29 11:52:40;;;;;;;49.80;38.08;;;21.80;86.50;;;;;;4973807;28;20129;-78
2023/06/29 11:55:08;;;;;;;51.38;36.80;;;21.90;85.80;;;;;;4973633;28;20110;-78
2023/06/29 11:57:36;;;;;;;44.22;35.90;;;22.00;86.30;;;;;;4941900;28;20163;-78
2023/06/29 12:00:04;;;;;;;53.03;41.53;;;22.20;86.50;;;;;;4941859;28;20049;-78
2023/06/29 12:02:30;;;;;;;55.80;42.83;;;22.40;86.40;;;;;;4957836;28;20400;-78
2023/06/29 12:05:03;;;;;;;52.67;38.80;;;22.30;85.60;;;;;;4973676;28;20054;-78
2023/06/29 12:07:38;;;;;;;46.70;37.05;;;22.30;84.70;;;;;;4957767;28;20404;-77
2023/06/29 12:10:07;;;;;;;50.83;41.17;;;22.40;84.90;;;;;;4957658;28;20392;-78
2023/06/29 12:12:46;;;;;;;45.85;35.88;;;22.40;84.80;;;;;;4959752;28;20085;-78
2023/06/29 12:15:13;;;;;;;51.50;38.95;;;22.40;84.10;;;;;;4974174;28;20184;-78
2023/06/29 12:17:41;;;;;;;51.83;40.70;;;22.30;83.90;;;;;;4977721;28;20043;-77
2023/06/29 12:20:17;;;;;;;50.53;36.08;;;22.30;84.20;;;;;;4973459;28;20051;-78
2023/06/29 12:22:44;;;;;;;47.75;38.33;;;22.20;84.30;;;;;;4965337;28;20043;-78
2023/06/29 12:25:15;;;;;;;50.85;38.90;;;22.20;84.00;;;;;;4973574;28;20669;-77
2023/06/29 12:27:43;;;;;;;52.03;39.58;;;22.20;83.90;;;;;;4966482;28;20451;-77